Time;durP1;ratioP1;P1;durP2;ratioP2;P2;SDS_P1;SDS_P2;PMS_P1;PMS_P2;Temp;Humidity;BMP_temperature;BMP_pressure;BME280_temperature;BME280_humidity;BME280_pressure;Samples;Min_cycle;Max_cycle;Signal;HPM_P1;HPM_P2
2022/06/04 00:00:25;;;;;;;10.43;4.20;;;;;;;24.69;55.97;98764.75;4487551;32;20113;-82
2022/06/04 00:02:51;;;;;;;12.10;4.47;;;;;;;24.83;56.18;98767.72;4473263;32;20169;-82
2022/06/04 00:05:19;;;;;;;10.73;4.03;;;;;;;24.84;56.18;98756.78;4473201;32;20424;-82
2022/06/04 00:07:45;;;;;;;11.50;4.25;;;;;;;24.80;56.37;98765.38;4487214;32;20068;-81
2022/06/04 00:15:52;;;;;;;10.68;4.00;;;;;;;24.45;57.61;98749.47;4475417;32;20111;-81
2022/06/04 00:18:19;;;;;;;11.77;4.00;;;;;;;24.51;58.29;98742.59;4487384;32;20112;-80
2022/06/04 00:20:46;;;;;;;9.35;3.25;;;;;;;24.39;58.10;98730.50;4473179;32;20160;-81
2022/06/04 00:23:12;;;;;;;13.43;3.87;;;;;;;24.43;57.47;98726.44;4473174;32;20114;-82
2022/06/04 00:25:42;;;;;;;9.55;3.75;;;;;;;24.33;58.00;98730.16;4473090;32;20480;-82
2022/06/04 00:28:09;;;;;;;11.82;4.07;;;;;;;24.29;58.44;98720.75;4487270;32;20120;-82
2022/06/04 00:30:35;;;;;;;11.85;4.57;;;;;;;24.23;58.55;98731.38;4487276;32;20149;-81
2022/06/04 00:33:00;;;;;;;10.32;4.60;;;;;;;24.18;58.70;98739.97;4487417;32;20378;-82
2022/06/04 00:35:27;;;;;;;11.23;4.28;;;;;;;24.10;59.25;98738.13;4487230;32;20060;-82
2022/06/04 00:37:53;;;;;;;14.32;4.40;;;;;;;24.09;59.93;98743.72;4473191;32;20080;-82
2022/06/04 00:40:48;;;;;;;12.20;4.20;;;;;;;24.13;59.80;98755.81;4473017;32;20116;-82
2022/06/04 00:43:14;;;;;;;9.77;3.42;;;;;;;24.17;59.54;98748.25;4487370;32;20102;-82
2022/06/04 00:46:37;;;;;;;10.23;3.67;;;;;;;24.14;59.93;98750.25;4487398;32;20085;-82
2022/06/04 00:49:02;;;;;;;10.40;3.58;;;;;;;24.17;59.76;98757.13;4407515;32;20090;-81
2022/06/04 00:51:27;;;;;;;11.50;3.25;;;;;;;24.23;59.19;98753.75;4407595;32;20200;-82
2022/06/04 00:53:54;;;;;;;10.35;2.78;;;;;;;24.11;59.08;98741.69;4394988;32;20117;-82
2022/06/04 00:56:50;;;;;;;10.40;3.35;;;;;;;24.15;58.26;98737.63;4394991;32;20124;-82
2022/06/04 00:59:37;;;;;;;11.15;2.95;;;;;;;24.26;57.78;98744.50;4394905;32;20083;-82
2022/06/04 01:02:14;;;;;;;12.10;2.72;;;;;;;24.28;58.07;98746.00;4407595;32;20098;-82
2022/06/04 01:05:04;;;;;;;10.48;3.05;;;;;;;24.29;58.57;98734.22;4394098;32;20465;-82
2022/06/04 01:08:06;;;;;;;11.90;2.90;;;;;;;24.30;58.57;98729.69;4407588;32;20171;-81
2022/06/04 01:10:44;;;;;;;12.52;3.60;;;;;;;24.34;58.69;98712.19;4407854;32;20074;-82
2022/06/04 01:13:26;;;;;;;10.32;3.55;;;;;;;24.35;58.85;98713.84;4407499;32;20294;-82
2022/06/04 01:15:52;;;;;;;12.32;3.40;;;;;;;24.35;58.67;98708.47;4394893;32;20098;-82
2022/06/04 01:18:17;;;;;;;11.20;3.50;;;;;;;24.37;58.85;98705.59;4407398;32;20093;-82
2022/06/04 01:20:45;;;;;;;10.82;3.33;;;;;;;24.39;59.05;98696.31;4476400;32;20091;-82
2022/06/04 01:23:17;;;;;;;11.23;3.47;;;;;;;24.41;59.24;98690.75;4486947;32;20096;-82
2022/06/04 01:26:07;;;;;;;10.02;3.22;;;;;;;24.41;59.42;98691.59;4472725;32;20092;-81
2022/06/04 01:28:36;;;;;;;10.98;4.03;;;;;;;24.40;59.54;98684.56;4487057;32;20080;-81
2022/06/04 01:31:04;;;;;;;10.93;3.95;;;;;;;24.41;59.68;98674.63;4472946;32;20534;-82
2022/06/04 01:33:42;;;;;;;11.02;3.90;;;;;;;24.41;59.73;98674.63;4472812;32;20408;-82
2022/06/04 01:36:17;;;;;;;9.30;3.55;;;;;;;24.44;59.75;98672.41;4472756;32;20463;-82
2022/06/04 01:38:44;;;;;;;9.85;3.53;;;;;;;24.46;59.92;98654.22;4472709;32;20443;-81
2022/06/04 01:41:22;;;;;;;12.37;3.70;;;;;;;24.47;59.92;98673.91;4472585;32;20118;-82
2022/06/04 01:43:53;;;;;;;9.57;3.85;;;;;;;24.51;59.95;98670.75;4472682;32;20180;-81
2022/06/04 01:46:24;;;;;;;10.80;4.00;;;;;;;24.48;60.10;98672.91;4472430;32;20156;-82
2022/06/04 01:48:52;;;;;;;9.02;3.62;;;;;;;24.46;60.18;98691.09;4486685;32;20106;-82
2022/06/04 01:51:23;;;;;;;11.23;3.90;;;;;;;24.45;60.35;98706.37;4472510;32;20085;-82
2022/06/04 01:53:52;;;;;;;11.10;5.07;;;;;;;24.44;60.46;98702.03;4472357;32;20104;-81
2022/06/04 01:56:23;;;;;;;10.43;4.07;;;;;;;24.45;60.45;98710.94;4486662;32;20455;-82
2022/06/04 01:58:53;;;;;;;10.98;3.87;;;;;;;24.43;60.51;98712.97;4472311;32;20290;-81
2022/06/04 02:01:24;;;;;;;12.23;4.07;;;;;;;24.41;60.71;98710.44;4472252;32;20084;-81
2022/06/04 02:03:59;;;;;;;12.25;3.70;;;;;;;24.42;60.94;98705.94;4472669;32;20615;-81
2022/06/04 02:06:28;;;;;;;11.15;3.45;;;;;;;24.42;61.00;98695.97;4486587;32;20140;-81
2022/06/04 02:08:58;;;;;;;8.13;3.58;;;;;;;24.41;60.90;98690.75;4472475;32;20140;-81
2022/06/04 02:11:25;;;;;;;17.92;3.65;;;;;;;24.40;60.78;98691.78;4472426;32;20151;-82
2022/06/04 02:13:53;;;;;;;13.07;3.78;;;;;;;24.38;60.86;98681.19;4472437;32;20869;-81
2022/06/04 02:16:24;;;;;;;11.77;3.17;;;;;;;24.40;60.82;98671.09;4472248;32;20161;-81
2022/06/04 02:18:50;;;;;;;10.30;3.60;;;;;;;24.38;60.77;98670.44;4474093;32;20523;-81
2022/06/04 02:21:18;;;;;;;10.52;3.40;;;;;;;24.35;60.81;98673.47;4474089;32;20133;-81
2022/06/04 02:23:46;;;;;;;12.80;3.70;;;;;;;24.35;60.72;98681.53;4474119;32;20510;-81
2022/06/04 02:26:12;;;;;;;11.18;3.80;;;;;;;24.35;60.69;98689.59;4488163;32;20111;-81
2022/06/04 02:28:38;;;;;;;12.05;3.80;;;;;;;24.33;60.74;98697.03;4473839;32;20116;-81
2022/06/04 02:31:17;;;;;;;9.13;3.37;;;;;;;24.34;60.92;98696.03;4488084;32;20115;-81
2022/06/04 02:34:05;;;;;;;11.12;4.05;;;;;;;24.34;60.71;98691.47;4473978;32;20169;-82
2022/06/04 02:36:35;;;;;;;10.65;3.80;;;;;;;24.29;60.40;98693.00;4473954;32;20104;-81
2022/06/04 02:39:11;;;;;;;11.73;3.87;;;;;;;24.28;60.43;98676.03;4474013;32;20410;-81
2022/06/04 02:41:49;;;;;;;12.82;4.35;;;;;;;24.25;60.79;98675.53;4473880;32;20098;-82
2022/06/04 02:44:24;;;;;;;11.55;4.30;;;;;;;24.27;60.86;98679.72;4473836;32;20585;-81
2022/06/04 02:47:04;;;;;;;11.82;4.12;;;;;;;24.28;60.92;98685.94;4487900;32;20076;-81
2022/06/04 02:49:55;;;;;;;11.43;5.25;;;;;;;24.26;61.14;98682.56;4474177;32;20357;-82
2022/06/04 02:52:21;;;;;;;11.88;5.43;;;;;;;24.23;61.30;98685.62;4473818;32;20427;-82
2022/06/04 02:54:59;;;;;;;12.25;5.20;;;;;;;24.20;61.48;98689.50;4473681;32;20092;-81
2022/06/04 02:57:26;;;;;;;14.38;6.80;;;;;;;24.23;61.46;98688.31;4473889;32;20100;-82
2022/06/04 02:59:53;;;;;;;13.25;6.35;;;;;;;24.22;61.57;98702.78;4473933;32;20110;-82
2022/06/04 03:02:20;;;;;;;14.73;7.32;;;;;;;24.25;61.58;98697.91;4473674;32;20149;-81
2022/06/04 03:04:49;;;;;;;13.23;7.07;;;;;;;24.23;61.71;98697.22;4473735;32;20109;-81
2022/06/04 03:07:16;;;;;;;15.23;7.03;;;;;;;24.11;62.24;98695.94;4473454;32;20122;-81
2022/06/04 03:09:44;;;;;;;16.40;7.12;;;;;;;24.14;62.05;98690.19;4473731;32;20155;-81
2022/06/04 03:12:11;;;;;;;14.75;6.93;;;;;;;24.18;62.14;98690.69;4473790;32;20136;-81
2022/06/04 03:14:37;;;;;;;12.82;7.40;;;;;;;24.12;62.39;98686.84;4487878;32;20096;-81
2022/06/04 03:17:05;;;;;;;13.40;6.97;;;;;;;24.17;62.29;98680.94;4473648;32;20113;-81
2022/06/04 03:19:30;;;;;;;14.63;7.62;;;;;;;24.22;62.03;98681.25;4473544;32;20108;-82
2022/06/04 03:21:56;;;;;;;14.65;7.80;;;;;;;24.22;62.00;98675.84;4487902;32;20424;-81
2022/06/04 03:24:21;;;;;;;14.75;6.78;;;;;;;24.27;62.05;98676.19;4487747;32;20080;-81
2022/06/04 03:26:46;;;;;;;14.93;7.60;;;;;;;24.26;62.27;98679.88;4487170;32;20152;-80
2022/06/04 03:29:12;;;;;;;14.07;7.72;;;;;;;24.29;62.43;98677.69;4487676;32;20134;-81
2022/06/04 03:31:37;;;;;;;14.60;7.65;;;;;;;24.38;62.53;98675.81;4487706;32;20099;-80
2022/06/04 03:34:04;;;;;;;13.35;7.87;;;;;;;24.50;62.72;98678.94;4487730;32;20114;-81
2022/06/04 03:36:30;;;;;;;14.87;7.62;;;;;;;24.57;62.22;98682.66;4487891;32;20084;-81
2022/06/04 03:38:58;;;;;;;13.15;6.72;;;;;;;24.56;62.01;98693.59;4473297;32;20084;-80
2022/06/04 03:41:24;;;;;;;13.77;7.47;;;;;;;24.62;61.67;98688.34;4487677;32;20337;-81
2022/06/04 03:43:52;;;;;;;14.98;7.07;;;;;;;24.63;61.27;98691.91;4473380;32;20154;-81
2022/06/04 03:46:27;;;;;;;13.32;6.82;;;;;;;24.58;61.42;98678.94;4473542;32;20088;-81
2022/06/04 03:48:57;;;;;;;14.10;6.78;;;;;;;24.49;61.89;98678.12;4460450;32;20111;-81
2022/06/04 03:51:23;;;;;;;14.90;6.90;;;;;;;24.47;61.94;98674.78;4487552;32;20080;-81
2022/06/04 03:53:48;;;;;;;13.38;6.18;;;;;;;24.52;61.81;98680.47;4487652;32;20122;-81
2022/06/04 03:56:14;;;;;;;12.15;6.10;;;;;;;24.47;61.33;98680.16;4487607;32;20511;-81
2022/06/04 03:58:39;;;;;;;14.38;6.28;;;;;;;24.41;61.42;98680.00;4487575;32;20160;-81
2022/06/04 04:01:23;;;;;;;13.32;6.60;;;;;;;24.33;61.62;98681.69;4487455;32;20081;-81
2022/06/04 04:03:49;;;;;;;12.68;6.22;;;;;;;24.36;61.61;98682.37;4488048;32;20148;-81
2022/06/04 04:06:18;;;;;;;13.48;5.68;;;;;;;24.34;61.73;98687.94;4473396;32;20129;-81
2022/06/04 04:08:43;;;;;;;11.88;5.78;;;;;;;24.39;61.38;98693.62;4487272;32;20115;-81
2022/06/04 04:11:11;;;;;;;12.63;5.80;;;;;;;24.30;61.18;98700.09;4473228;32;20092;-81
2022/06/04 04:13:36;;;;;;;11.95;5.12;;;;;;;24.22;60.82;98700.09;4473122;32;20603;-81
2022/06/04 04:16:04;;;;;;;11.88;5.00;;;;;;;24.20;61.09;98694.88;4487505;32;20087;-81
2022/06/04 04:18:30;;;;;;;11.52;5.15;;;;;;;24.19;61.32;98698.59;4475740;31;20104;-79
2022/06/04 04:20:55;;;;;;;12.60;4.30;;;;;;;24.12;61.24;98697.59;4500803;31;20084;-80
2022/06/04 04:23:21;;;;;;;11.40;4.68;;;;;;;24.14;61.12;98700.94;4503239;31;20092;-81
2022/06/04 04:25:46;;;;;;;13.62;5.40;;;;;;;24.06;61.21;98709.88;4475655;31;20084;-82
2022/06/04 04:28:12;;;;;;;10.85;4.80;;;;;;;24.07;61.21;98703.50;4503192;31;20088;-82
2022/06/04 04:30:37;;;;;;;12.23;4.87;;;;;;;24.05;61.34;98697.47;4503133;31;20136;-82
2022/06/04 04:33:04;;;;;;;12.30;4.87;;;;;;;24.06;61.32;98700.97;4488717;31;20100;-81
2022/06/04 04:35:32;;;;;;;12.85;4.80;;;;;;;24.02;61.31;98700.47;4493662;31;20149;-81
2022/06/04 04:37:58;;;;;;;11.63;4.62;;;;;;;23.76;62.18;98719.50;4487314;32;20432;-81
2022/06/04 04:40:25;;;;;;;13.62;5.32;;;;;;;23.84;62.44;98726.78;4472129;32;20107;-81
2022/06/04 04:42:51;;;;;;;15.65;5.70;;;;;;;23.92;62.77;98743.72;4487546;32;20116;-82
2022/06/04 04:45:18;;;;;;;15.90;5.35;;;;;;;23.91;63.02;98728.59;4473093;32;20119;-82
2022/06/04 04:47:46;;;;;;;13.77;5.68;;;;;;;23.93;63.38;98709.56;4472893;32;20434;-82
2022/06/04 04:50:27;;;;;;;13.38;5.12;;;;;;;23.93;63.49;98709.56;4472909;32;20565;-82
2022/06/04 04:52:53;;;;;;;14.95;5.80;;;;;;;23.96;63.50;98711.94;4477857;31;20116;-82
2022/06/04 04:55:19;;;;;;;14.52;5.47;;;;;;;23.92;63.73;98702.53;4488967;31;20088;-82
2022/06/04 04:57:44;;;;;;;11.60;5.47;;;;;;;23.88;64.01;98709.28;4503300;31;20384;-82
2022/06/04 05:00:11;;;;;;;13.05;5.53;;;;;;;23.95;63.71;98704.87;4502842;31;20102;-80
2022/06/04 05:02:36;;;;;;;13.73;5.70;;;;;;;23.94;63.61;98695.97;4488433;31;20123;-82
2022/06/04 05:05:03;;;;;;;12.25;5.85;;;;;;;23.97;63.36;98700.19;4495797;31;20359;-81
2022/06/04 05:07:28;;;;;;;11.97;5.60;;;;;;;24.04;63.21;98697.63;4486741;32;20440;-82
2022/06/04 05:09:54;;;;;;;12.18;5.18;;;;;;;24.09;63.11;98693.41;4487160;32;20124;-81
2022/06/04 05:12:19;;;;;;;13.93;5.20;;;;;;;24.09;62.91;98689.87;4486934;32;20168;-80
2022/06/04 05:14:45;;;;;;;11.73;4.68;;;;;;;24.12;62.78;98687.66;4487027;32;20092;-80
2022/06/04 05:17:10;;;;;;;11.73;5.03;;;;;;;24.19;62.58;98678.91;4487040;32;20111;-81
2022/06/04 05:19:36;;;;;;;14.35;4.90;;;;;;;24.25;62.40;98676.34;4487065;32;20084;-81
2022/06/04 05:22:03;;;;;;;12.73;5.05;;;;;;;24.34;61.96;98682.56;4486836;32;20386;-81
2022/06/04 05:24:32;;;;;;;12.40;5.37;;;;;;;24.40;61.73;98689.09;4487146;32;20084;-80
2022/06/04 05:26:58;;;;;;;12.18;4.97;;;;;;;24.38;61.69;98688.41;4472491;32;20491;-81
2022/06/04 05:29:23;;;;;;;12.35;4.70;;;;;;;24.36;61.58;98688.63;4486864;32;20072;-82
2022/06/04 05:31:49;;;;;;;13.55;5.10;;;;;;;24.34;61.66;98694.16;4472882;32;20138;-81
2022/06/04 05:34:16;;;;;;;12.93;4.82;;;;;;;24.38;61.10;98686.59;4486843;32;20133;-81
2022/06/04 05:36:42;;;;;;;11.98;5.28;;;;;;;24.38;61.02;98686.59;4486843;32;20084;-82
2022/06/04 05:39:09;;;;;;;15.90;5.60;;;;;;;24.41;61.02;98685.38;4472600;32;20519;-81
2022/06/04 05:41:34;;;;;;;14.60;5.90;;;;;;;24.42;61.02;98690.59;4472518;32;20127;-81
2022/06/04 05:44:00;;;;;;;14.27;5.60;;;;;;;24.46;60.82;98709.94;4486765;32;20088;-81
2022/06/04 05:46:26;;;;;;;12.43;5.45;;;;;;;24.49;60.45;98710.44;4486648;32;20081;-82
2022/06/04 05:48:51;;;;;;;13.00;5.35;;;;;;;24.42;60.47;98708.62;4486699;32;20076;-81
2022/06/04 05:51:23;;;;;;;11.55;5.28;;;;;;;24.36;60.66;98699.38;4472055;32;20096;-81
2022/06/04 05:53:49;;;;;;;11.95;5.03;;;;;;;24.36;60.58;98703.91;4486588;32;20439;-81
2022/06/04 05:56:19;;;;;;;12.70;5.90;;;;;;;24.33;60.46;98695.16;4486593;32;20076;-81
2022/06/04 05:58:48;;;;;;;15.32;6.05;;;;;;;24.30;60.90;98692.00;4472619;32;20096;-81
2022/06/04 06:01:15;;;;;;;14.52;5.78;;;;;;;24.30;61.21;98686.62;4472486;32;20158;-81
2022/06/04 06:03:41;;;;;;;12.27;5.00;;;;;;;24.32;61.20;98689.97;4472348;32;20104;-82
2022/06/04 06:06:15;;;;;;;12.90;4.95;;;;;;;24.37;61.03;98692.97;4472229;32;20088;-81
2022/06/04 06:08:41;;;;;;;12.27;5.05;;;;;;;24.53;60.83;98694.78;4486100;32;20153;-81
2022/06/04 06:11:08;;;;;;;10.85;5.07;;;;;;;24.47;60.92;98699.00;4472192;32;20100;-81
2022/06/04 06:13:33;;;;;;;10.07;4.35;;;;;;;24.52;61.03;98693.13;4486340;32;20497;-81
2022/06/04 06:16:11;;;;;;;11.85;4.60;;;;;;;24.59;60.81;98695.94;4486375;32;20088;-81
2022/06/04 06:18:37;;;;;;;11.77;4.37;;;;;;;24.57;60.65;98701.50;4486415;32;20082;-81
2022/06/04 06:21:14;;;;;;;10.23;3.90;;;;;;;24.54;60.57;98701.84;4471936;32;20100;-82
2022/06/04 06:23:40;;;;;;;11.40;4.40;;;;;;;24.57;60.44;98703.34;4486328;32;20088;-81
2022/06/04 06:26:11;;;;;;;10.20;4.50;;;;;;;24.49;60.56;98707.75;4486198;32;20115;-81
2022/06/04 06:28:38;;;;;;;13.70;4.45;;;;;;;24.48;60.60;98703.34;4472084;32;20084;-81
2022/06/04 06:31:04;;;;;;;10.90;4.35;;;;;;;24.45;60.52;98697.47;4472172;32;20091;-82
2022/06/04 06:33:30;;;;;;;12.70;4.85;;;;;;;24.42;60.60;98697.84;4486364;32;20148;-81
2022/06/04 06:36:04;;;;;;;13.07;4.95;;;;;;;24.38;60.72;98691.09;4471636;32;20096;-82
2022/06/04 06:38:30;;;;;;;13.15;3.97;;;;;;;24.35;60.58;98692.31;4471674;32;20115;-81
2022/06/04 06:40:57;;;;;;;11.68;4.00;;;;;;;24.32;60.38;98693.50;4471747;32;20101;-81
2022/06/04 06:43:31;;;;;;;10.33;3.83;;;;;;;24.24;60.37;98700.75;4486265;32;20100;-81
2022/06/04 06:46:07;;;;;;;11.88;4.15;;;;;;;24.20;60.61;98694.88;4472669;32;20588;-81
2022/06/04 06:48:33;;;;;;;12.55;4.18;;;;;;;24.10;60.74;98695.06;4485865;32;20096;-82
2022/06/04 06:51:07;;;;;;;10.90;4.43;;;;;;;24.19;60.69;98695.06;4458781;32;20104;-83
2022/06/04 06:53:33;;;;;;;12.37;4.20;;;;;;;24.20;60.49;98699.41;4485782;32;20160;-82
2022/06/04 06:56:08;;;;;;;11.82;4.20;;;;;;;24.23;60.25;98694.53;4485844;32;20092;-82
2022/06/04 06:58:33;;;;;;;11.50;4.12;;;;;;;24.24;60.40;98695.38;4471502;32;20538;-82
2022/06/04 07:00:59;;;;;;;12.77;4.35;;;;;;;24.10;60.69;98694.25;4485742;32;20104;-82
2022/06/04 07:03:24;;;;;;;11.88;4.40;;;;;;;24.13;60.67;98688.53;4472887;32;20100;-82
2022/06/04 07:05:55;;;;;;;11.45;4.68;;;;;;;24.13;60.74;98683.13;4473601;32;20119;-82
2022/06/04 07:08:21;;;;;;;12.93;4.28;;;;;;;24.26;60.51;98679.88;4487660;32;20495;-82
2022/06/04 07:10:47;;;;;;;13.50;4.50;;;;;;;24.30;60.41;98679.38;4487839;32;20115;-82
2022/06/04 07:13:12;;;;;;;12.52;4.85;;;;;;;24.32;60.18;98681.91;4487828;32;20356;-82
2022/06/04 07:15:38;;;;;;;12.37;5.25;;;;;;;24.34;60.17;98682.56;4487765;32;20379;-82
2022/06/04 07:18:03;;;;;;;11.10;4.35;;;;;;;24.37;59.88;98684.06;4473403;32;20476;-82
2022/06/04 07:20:29;;;;;;;14.13;4.57;;;;;;;24.32;60.04;98671.12;4487881;32;20116;-82
2022/06/04 07:22:54;;;;;;;12.52;4.55;;;;;;;24.37;59.84;98676.81;4487832;32;20080;-82
2022/06/04 07:25:21;;;;;;;10.18;4.28;;;;;;;24.47;59.70;98674.78;4487783;32;20092;-82
2022/06/04 07:27:47;;;;;;;10.90;5.13;;;;;;;24.52;59.67;98667.00;4487879;32;20263;-82
2022/06/04 07:30:12;;;;;;;12.18;4.70;;;;;;;24.62;59.17;98672.19;4473469;32;20131;-82
2022/06/04 07:32:38;;;;;;;10.48;4.62;;;;;;;24.64;59.16;98669.31;4487801;32;20116;-82
2022/06/04 07:35:03;;;;;;;13.80;6.07;;;;;;;24.69;59.06;98678.53;4473435;32;20424;-82
2022/06/04 07:37:29;;;;;;;18.77;6.72;;;;;;;24.81;58.95;98680.84;4487617;32;20095;-82
2022/06/04 07:39:54;;;;;;;12.68;6.50;;;;;;;24.82;58.85;98675.28;4473377;32;20096;-82
2022/06/04 07:42:20;;;;;;;13.48;5.90;;;;;;;24.90;58.76;98679.78;4487601;32;20148;-82
2022/06/04 07:44:45;;;;;;;15.93;6.43;;;;;;;24.96;58.78;98684.44;4487613;32;20085;-82
2022/06/04 07:47:12;;;;;;;14.40;7.10;;;;;;;24.98;58.80;98678.88;4487544;32;20092;-82
2022/06/04 07:49:38;;;;;;;12.77;6.85;;;;;;;25.07;58.54;98669.69;4487617;32;20430;-82
2022/06/04 07:52:04;;;;;;;13.57;6.47;;;;;;;25.12;58.28;98676.22;4473199;32;20122;-82
2022/06/04 07:54:31;;;;;;;13.88;6.97;;;;;;;25.23;58.14;98680.41;4473359;32;20457;-82
2022/06/04 07:56:56;;;;;;;14.43;7.12;;;;;;;25.28;58.15;98671.78;4487630;32;20511;-82
2022/06/04 07:59:23;;;;;;;13.82;6.75;;;;;;;25.38;58.01;98668.81;4487593;32;20119;-82
2022/06/04 08:01:48;;;;;;;13.45;6.82;;;;;;;25.45;57.91;98676.00;4487589;32;20191;-82
2022/06/04 08:04:14;;;;;;;13.43;7.15;;;;;;;25.56;57.83;98672.03;4487478;32;20106;-82
2022/06/04 08:06:40;;;;;;;13.55;7.35;;;;;;;25.69;57.98;98668.69;4487294;32;20096;-82
2022/06/04 08:09:05;;;;;;;13.90;6.87;;;;;;;25.73;57.92;98666.47;4473145;32;20136;-82
2022/06/04 08:11:31;;;;;;;12.63;7.12;;;;;;;25.76;57.76;98660.72;4487503;32;20100;-82
2022/06/04 08:14:03;;;;;;;14.85;7.12;;;;;;;25.88;57.54;98668.19;4487261;32;20107;-82
2022/06/04 08:16:28;;;;;;;12.90;6.45;;;;;;;26.14;57.24;98664.22;4487502;32;20090;-82
2022/06/04 08:18:54;;;;;;;13.82;6.45;;;;;;;26.39;56.50;98664.75;4473162;32;20112;-82
2022/06/04 08:21:19;;;;;;;14.43;6.32;;;;;;;26.60;56.03;98657.78;4473174;32;20330;-82
2022/06/04 08:23:44;;;;;;;14.05;6.45;;;;;;;26.82;56.16;98662.16;4487309;32;20084;-82
2022/06/04 08:26:10;;;;;;;11.32;6.07;;;;;;;27.23;55.12;98652.56;4487165;32;20073;-82
2022/06/04 08:28:37;;;;;;;12.07;5.80;;;;;;;27.32;54.55;98650.63;4487275;32;20088;-82
2022/06/04 08:31:06;;;;;;;12.63;6.10;;;;;;;27.35;53.87;98651.06;4487467;32;20146;-82
2022/06/04 08:33:32;;;;;;;11.77;5.72;;;;;;;27.45;53.19;98653.44;4473171;32;20143;-82
2022/06/04 08:35:57;;;;;;;11.88;5.85;;;;;;;27.35;53.37;98655.62;4487488;32;20085;-82
2022/06/04 08:38:23;;;;;;;13.50;6.12;;;;;;;27.34;53.42;98660.19;4487262;32;20432;-82
2022/06/04 08:40:53;;;;;;;12.75;5.30;;;;;;;27.30;53.76;98663.50;4487317;32;20144;-82
2022/06/04 08:43:37;;;;;;;11.05;5.80;;;;;;;27.32;53.85;98664.16;4460039;32;20364;-82
2022/06/04 08:46:10;;;;;;;11.77;6.45;;;;;;;27.28;54.30;98658.28;4487297;32;20127;-82
2022/06/04 08:48:37;;;;;;;11.80;6.20;;;;;;;27.33;54.40;98663.91;4473027;32;20116;-82
2022/06/04 08:51:23;;;;;;;14.10;5.87;;;;;;;27.38;54.12;98664.19;4473202;32;20140;-82
2022/06/04 08:53:51;;;;;;;12.25;5.97;;;;;;;27.51;53.47;98674.28;4472929;32;20076;-82
2022/06/04 08:59:18;;;;;;;12.68;6.60;;;;;;;27.48;53.31;98671.97;4475186;32;20114;-82
2022/06/04 09:01:53;;;;;;;16.20;6.68;;;;;;;27.41;53.09;98671.94;4487388;32;20104;-82
2022/06/04 09:04:48;;;;;;;13.32;6.60;;;;;;;27.27;53.38;98670.13;4468108;32;156977;-82
2022/06/04 09:07:20;;;;;;;12.18;6.43;;;;;;;27.22;53.64;98669.84;4472702;32;20092;-81
2022/06/04 09:10:15;;;;;;;12.82;6.80;;;;;;;27.16;53.91;98676.88;4487143;32;20084;-82
2022/06/04 09:12:45;;;;;;;13.10;7.62;;;;;;;27.07;54.30;98681.56;4459870;32;20108;-82
2022/06/04 09:15:31;;;;;;;12.02;6.85;;;;;;;26.96;54.68;98675.81;4473194;32;20087;-82
2022/06/04 09:17:59;;;;;;;13.15;7.15;;;;;;;26.88;54.92;98682.19;4473041;32;20137;-82
2022/06/04 09:20:41;;;;;;;13.93;7.62;;;;;;;26.74;55.45;98678.50;4472699;32;20104;-82
2022/06/04 09:23:06;;;;;;;12.43;6.85;;;;;;;26.71;55.25;98678.03;4459955;32;20112;-83
2022/06/04 09:25:55;;;;;;;13.95;7.82;;;;;;;26.63;55.40;98674.41;4486292;32;20408;-82
2022/06/04 09:28:48;;;;;;;13.70;7.18;;;;;;;26.61;55.89;98681.03;4487175;32;20083;-82
2022/06/04 09:31:16;;;;;;;13.07;7.20;;;;;;;26.51;56.16;98683.19;4486924;32;20416;-82
2022/06/04 09:33:58;;;;;;;12.05;6.85;;;;;;;26.49;56.26;98676.09;4472566;32;20164;-82
2022/06/04 09:36:30;;;;;;;15.57;7.45;;;;;;;26.60;56.39;98688.31;4486834;32;20160;-82
2022/06/04 09:39:02;;;;;;;12.32;7.03;;;;;;;26.87;55.64;98675.94;4472770;32;20079;-82
2022/06/04 09:41:31;;;;;;;13.23;7.15;;;;;;;27.24;54.45;98673.19;4472461;32;20093;-82
2022/06/04 09:44:13;;;;;;;14.15;7.50;;;;;;;27.70;53.42;98667.37;4472666;32;20135;-82
2022/06/04 09:46:43;;;;;;;12.45;6.68;;;;;;;27.99;52.73;98668.19;4472518;32;20236;-82
2022/06/04 09:49:33;;;;;;;15.48;6.68;;;;;;;28.23;51.60;98675.00;4472932;32;20469;-83
2022/06/04 09:51:59;;;;;;;14.80;6.10;;;;;;;28.45;51.18;98675.72;4486513;32;20119;-82
2022/06/04 09:54:28;;;;;;;11.90;6.43;;;;;;;28.53;49.91;98681.03;4472526;32;20161;-82
2022/06/04 09:56:58;;;;;;;11.50;6.12;;;;;;;28.68;50.07;98674.59;4486625;32;20441;-82
2022/06/04 09:59:28;;;;;;;12.05;6.22;;;;;;;28.72;50.60;98665.03;4486864;32;20080;-83
2022/06/04 10:02:09;;;;;;;12.75;5.28;;;;;;;28.84;50.76;98663.41;4472970;32;20088;-82
2022/06/04 10:04:47;;;;;;;11.85;6.00;;;;;;;29.13;49.38;98673.09;4486660;32;20080;-82
2022/06/04 10:07:15;;;;;;;12.13;5.47;;;;;;;29.26;48.30;98666.00;4459475;32;20527;-82
2022/06/04 10:09:58;;;;;;;10.75;4.75;;;;;;;29.20;47.35;98675.81;4472534;32;20088;-82
2022/06/04 10:15:14;;;;;;;;;;;;;;;29.37;47.96;98677.06;4486727;32;20119;-82
2022/06/04 10:17:39;;;;;;;7.72;3.20;;;;;;;29.70;47.39;98673.50;4472292;32;19972;-82
2022/06/04 10:20:18;;;;;;;7.55;2.80;;;;;;;29.99;46.68;98676.84;4486312;32;20211;-82
2022/06/04 10:22:49;;;;;;;8.60;3.10;;;;;;;29.83;45.93;98666.44;4486361;32;20092;-82
2022/06/04 10:25:25;;;;;;;8.90;2.90;;;;;;;29.60;46.87;98679.38;4486359;32;20100;-82
2022/06/04 10:28:11;;;;;;;11.12;4.85;;;;;;;29.47;47.45;98683.97;4471994;32;20084;-82
2022/06/04 10:30:43;;;;;;;14.98;7.10;;;;;;;29.64;47.91;98678.97;4472069;32;20145;-82
2022/06/04 10:33:34;;;;;;;11.80;5.68;;;;;;;29.86;47.27;98682.31;4486212;32;20092;-83
2022/06/04 10:36:33;;;;;;;14.85;6.82;;;;;;;30.13;46.42;98683.94;4471764;32;20446;-82
2022/06/04 10:39:06;;;;;;;11.88;6.72;;;;;;;30.31;46.61;98683.28;4473593;32;20388;-82
2022/06/04 10:41:52;;;;;;;14.57;7.30;;;;;;;30.43;45.81;98677.19;4473825;32;20077;-82
2022/06/04 10:44:39;;;;;;;16.52;6.70;;;;;;;30.45;45.31;98689.50;4473995;32;20124;-82
2022/06/04 10:47:17;;;;;;;13.75;6.68;;;;;;;30.40;45.63;98689.31;4488182;32;20155;-82
2022/06/04 10:49:49;;;;;;;13.45;6.60;;;;;;;29.99;47.37;98691.25;4488144;32;20073;-82
2022/06/04 10:52:19;;;;;;;12.40;6.90;;;;;;;29.93;45.92;98697.53;4473730;32;20081;-82
2022/06/04 10:54:52;;;;;;;12.07;5.97;;;;;;;29.90;46.17;98697.13;4488083;32;20148;-82
2022/06/04 10:57:32;;;;;;;11.70;5.70;;;;;;;29.99;46.31;98693.97;4488141;32;20158;-82
2022/06/04 11:00:25;;;;;;;14.10;5.95;;;;;;;30.16;45.88;98690.81;4473823;32;20072;-83
2022/06/04 11:02:55;;;;;;;15.63;6.15;;;;;;;30.25;45.65;98689.56;4487696;32;20084;-82
2022/06/04 11:05:29;;;;;;;15.88;6.78;;;;;;;30.29;45.63;98690.78;4474084;32;20112;-82
2022/06/04 11:08:12;;;;;;;12.75;6.28;;;;;;;30.06;45.90;98696.69;4473543;32;20189;-82
2022/06/04 11:10:40;;;;;;;12.32;4.85;;;;;;;29.95;46.35;98703.59;4488068;32;20088;-83
2022/06/04 11:13:18;;;;;;;11.95;6.00;;;;;;;30.02;46.19;98703.59;4473606;32;20068;-82
2022/06/04 11:16:13;;;;;;;11.95;5.07;;;;;;;29.51;47.38;98696.06;4487993;32;20081;-82
2022/06/04 11:18:42;;;;;;;10.40;5.07;;;;;;;29.46;47.65;98713.00;4473780;32;20164;-83
2022/06/04 11:21:32;;;;;;;10.02;4.55;;;;;;;29.36;47.58;98710.69;4487778;32;20084;-82
2022/06/04 11:24:04;;;;;;;11.57;4.97;;;;;;;29.27;47.56;98714.63;4473562;32;20413;-83
2022/06/04 11:27:00;;;;;;;11.65;5.95;;;;;;;29.16;47.86;98705.22;4487689;32;20115;-83
2022/06/04 11:29:26;;;;;;;11.68;4.65;;;;;;;29.04;47.68;98711.44;4473584;32;20139;-82
2022/06/04 11:32:00;;;;;;;10.85;5.43;;;;;;;28.77;48.48;98717.59;4473535;32;20141;-82
2022/06/04 11:34:39;;;;;;;11.35;5.40;;;;;;;28.51;49.60;98718.34;4487834;32;20077;-82
2022/06/04 11:37:17;;;;;;;10.45;5.25;;;;;;;28.45;49.35;98727.22;4473647;32;20407;-82
2022/06/04 11:40:10;;;;;;;11.07;5.55;;;;;;;28.23;49.42;98726.47;4473488;32;20092;-82
2022/06/04 11:42:57;;;;;;;11.18;5.62;;;;;;;28.09;50.32;98730.16;4487780;32;20102;-82
2022/06/04 11:45:35;;;;;;;11.45;5.53;;;;;;;28.32;49.62;98721.72;4473501;32;20519;-82
2022/06/04 11:48:05;;;;;;;12.30;5.22;;;;;;;28.09;50.15;98724.72;4487199;32;20097;-82
2022/06/04 11:50:49;;;;;;;10.73;4.87;;;;;;;28.43;49.06;98718.44;4487642;32;20108;-82
2022/06/04 11:53:35;;;;;;;11.40;5.65;;;;;;;28.66;48.99;98725.47;4473508;32;20088;-82
2022/06/04 11:56:23;;;;;;;11.32;5.32;;;;;;;28.71;48.40;98717.59;4473231;32;20131;-82